createdAt,value
2019-01-28T00:01:41.238Z,1.14
2019-01-28T00:04:09.048Z,1.16
2019-01-28T00:06:36.770Z,1.18
2019-01-28T00:09:07.435Z,1.09
2019-01-28T00:11:35.118Z,1.09
2019-01-28T00:14:03.343Z,1.13
2019-01-28T00:16:31.103Z,1.16
2019-01-28T00:18:59.141Z,1.16
2019-01-28T00:21:26.872Z,1.08
2019-01-28T00:23:54.591Z,1.01
2019-01-28T00:26:22.277Z,1.14
2019-01-28T00:28:49.860Z,1.20
2019-01-28T00:31:17.852Z,1.11
2019-01-28T00:33:45.437Z,1.13
2019-01-28T00:36:13.234Z,1.12
2019-01-28T00:38:41.889Z,1.19
2019-01-28T00:41:09.535Z,1.19
2019-01-28T00:43:37.183Z,1.13
2019-01-28T00:46:07.756Z,1.18
2019-01-28T00:48:35.415Z,1.18
2019-01-28T00:51:03.156Z,1.20
2019-01-28T00:53:33.736Z,1.23
2019-01-28T00:56:01.312Z,1.23
2019-01-28T00:58:29.865Z,1.22
2019-01-28T01:00:57.521Z,1.25
2019-01-28T01:03:25.222Z,1.23
2019-01-28T01:05:52.760Z,1.30
2019-01-28T01:08:20.450Z,1.24
2019-01-28T01:10:48.171Z,1.25
2019-01-28T01:13:15.966Z,1.21
2019-01-28T01:15:43.573Z,1.28
2019-01-28T01:18:11.283Z,1.25
2019-01-28T01:20:38.868Z,1.25
2019-01-28T01:23:06.512Z,1.25
2019-01-28T01:25:34.060Z,1.31
2019-01-28T01:28:02.526Z,1.29
2019-01-28T01:30:31.116Z,1.30
2019-01-28T01:32:59.160Z,1.32
2019-01-28T01:35:26.752Z,1.28
2019-01-28T01:37:54.396Z,1.30
2019-01-28T01:40:23.056Z,1.32
2019-01-28T01:42:50.705Z,1.36
2019-01-28T01:45:18.404Z,1.37
2019-01-28T01:47:46.210Z,1.36
2019-01-28T01:50:13.917Z,1.35
2019-01-28T01:52:41.602Z,1.33
2019-01-28T01:55:11.038Z,1.36
2019-01-28T01:57:38.637Z,1.39
2019-01-28T02:00:13.775Z,1.33
2019-01-28T02:02:41.342Z,1.29
2019-01-28T02:05:09.424Z,1.34
2019-01-28T02:07:36.987Z,1.37
2019-01-28T02:10:05.747Z,1.43
2019-01-28T02:12:33.487Z,1.35
2019-01-28T02:15:01.226Z,1.39
2019-01-28T02:17:28.924Z,1.41
2019-01-28T02:19:56.573Z,1.37
2019-01-28T02:22:24.179Z,1.38
2019-01-28T02:24:51.854Z,1.40
2019-01-28T02:27:19.394Z,1.38
2019-01-28T02:29:47.133Z,1.30
2019-01-28T02:32:14.795Z,1.28
2019-01-28T02:34:42.444Z,1.26
2019-01-28T02:37:10.026Z,1.23
2019-01-28T02:39:37.743Z,1.20
2019-01-28T02:42:05.358Z,1.23
2019-01-28T02:44:33.053Z,1.18
2019-01-28T02:47:00.615Z,1.28
2019-01-28T02:49:28.258Z,1.30
2019-01-28T02:51:55.856Z,1.34
2019-01-28T02:54:23.558Z,1.37
2019-01-28T02:56:51.164Z,1.45
2019-01-28T02:59:18.866Z,1.43
2019-01-28T03:01:46.413Z,1.46
2019-01-28T03:04:14.067Z,1.50
2019-01-28T03:06:41.708Z,1.45
2019-01-28T03:09:09.359Z,1.47
2019-01-28T03:11:37.110Z,1.51
2019-01-28T03:14:04.954Z,1.48
2019-01-28T03:16:32.567Z,1.47
2019-01-28T03:19:00.347Z,1.39
2019-01-28T03:21:27.915Z,1.36
2019-01-28T03:23:55.638Z,1.43
2019-01-28T03:26:23.245Z,1.40
2019-01-28T03:28:50.888Z,1.38
2019-01-28T03:31:18.539Z,1.37
2019-01-28T03:33:46.193Z,1.37
2019-01-28T03:36:13.825Z,1.39
2019-01-28T03:38:41.540Z,1.40
2019-01-28T03:41:09.236Z,1.35
2019-01-28T03:43:36.870Z,1.35
2019-01-28T03:46:04.411Z,1.34
2019-01-28T03:48:32.092Z,1.40
2019-01-28T03:50:59.697Z,1.38
2019-01-28T03:53:27.527Z,1.29
2019-01-28T03:55:55.191Z,1.29
2019-01-28T03:58:22.933Z,1.27
2019-01-28T04:00:50.597Z,1.28
2019-01-28T04:03:19.222Z,1.31
2019-01-28T04:05:46.837Z,1.27
2019-01-28T04:08:14.572Z,1.42
2019-01-28T04:10:42.167Z,1.38
2019-01-28T04:13:09.823Z,1.36
2019-01-28T04:15:37.536Z,1.31
2019-01-28T04:18:05.169Z,1.29
2019-01-28T04:20:32.817Z,1.33
2019-01-28T04:23:01.137Z,1.28
2019-01-28T04:25:28.745Z,1.28
2019-01-28T04:27:56.402Z,1.29
2019-01-28T04:30:24.553Z,1.15
2019-01-28T04:32:52.229Z,1.11
2019-01-28T04:35:19.938Z,1.20
2019-01-28T04:37:47.602Z,1.14
2019-01-28T04:40:15.743Z,1.13
2019-01-28T04:42:43.391Z,1.18
2019-01-28T04:45:13.314Z,1.21
2019-01-28T04:47:41.107Z,1.13
2019-01-28T04:50:10.781Z,1.17
2019-01-28T04:52:38.457Z,1.16
2019-01-28T04:55:06.255Z,1.22
2019-01-28T04:57:34.038Z,1.21
2019-01-28T05:00:01.761Z,1.21
2019-01-28T05:02:29.596Z,1.22
2019-01-28T05:04:57.381Z,1.22
2019-01-28T05:07:25.090Z,1.16
2019-01-28T05:09:52.762Z,1.20
2019-01-28T05:12:20.560Z,1.26
2019-01-28T05:14:48.286Z,1.27
2019-01-28T05:17:16.068Z,1.30
2019-01-28T05:19:43.726Z,1.31
2019-01-28T05:22:11.402Z,1.22
2019-01-28T05:24:39.000Z,1.32
2019-01-28T05:27:06.772Z,1.33
2019-01-28T05:29:34.455Z,1.34
2019-01-28T05:32:02.161Z,1.36
2019-01-28T05:34:29.847Z,1.24
2019-01-28T05:36:57.534Z,1.30
2019-01-28T05:39:25.183Z,1.35
2019-01-28T05:41:52.812Z,1.31
2019-01-28T05:44:20.383Z,1.27
2019-01-28T05:46:48.016Z,1.35
2019-01-28T05:49:15.537Z,1.35
2019-01-28T05:51:43.220Z,1.30
2019-01-28T05:54:10.865Z,1.16
2019-01-28T05:56:38.610Z,1.21
2019-01-28T05:59:06.334Z,1.30
2019-01-28T06:01:33.918Z,1.34
2019-01-28T06:04:01.535Z,1.34
2019-01-28T06:06:29.212Z,1.36
2019-01-28T06:08:56.898Z,1.44
2019-01-28T06:11:24.494Z,1.46
2019-01-28T06:13:52.498Z,1.30
2019-01-28T06:16:20.090Z,1.35
2019-01-28T06:18:47.775Z,1.39
2019-01-28T06:21:15.344Z,1.36
2019-01-28T06:23:43.021Z,1.38
2019-01-28T06:26:10.579Z,1.47
2019-01-28T06:28:38.151Z,1.52
2019-01-28T06:31:05.796Z,1.51
2019-01-28T06:33:33.451Z,1.54
2019-01-28T06:36:01.724Z,1.50
2019-01-28T06:38:29.371Z,1.54
2019-01-28T06:40:57.025Z,1.57
2019-01-28T06:43:24.796Z,1.50
2019-01-28T06:45:55.319Z,1.49
2019-01-28T06:48:22.999Z,1.59
2019-01-28T06:50:50.599Z,1.64
2019-01-28T06:53:18.255Z,1.68
2019-01-28T06:55:45.911Z,1.72
2019-01-28T06:58:13.508Z,1.79
2019-01-28T07:00:41.169Z,1.80
2019-01-28T07:03:08.870Z,1.81
2019-01-28T07:05:36.549Z,1.75
2019-01-28T07:08:04.678Z,1.80
2019-01-28T07:10:32.432Z,1.85
2019-01-28T07:13:00.004Z,1.87
2019-01-28T07:15:27.634Z,1.85
2019-01-28T07:17:55.365Z,1.91
2019-01-28T07:20:25.950Z,1.88
2019-01-28T07:22:53.657Z,1.85
2019-01-28T07:25:21.437Z,1.90
2019-01-28T07:27:49.114Z,1.93
2019-01-28T07:30:29.469Z,1.93
2019-01-28T07:32:57.041Z,1.97
2019-01-28T07:35:25.083Z,1.95
2019-01-28T07:37:52.827Z,1.97
2019-01-28T07:40:20.605Z,1.93
2019-01-28T07:42:48.381Z,1.94
2019-01-28T07:45:19.045Z,1.97
2019-01-28T07:47:46.799Z,1.98
2019-01-28T07:50:14.664Z,1.95
2019-01-28T07:52:43.410Z,1.98
2019-01-28T07:55:13.295Z,1.99
2019-01-28T07:57:41.337Z,2.02
2019-01-28T08:00:12.845Z,2.05
2019-01-28T08:02:40.535Z,2.02
2019-01-28T08:05:09.280Z,1.98
2019-01-28T08:07:37.244Z,2.07
2019-01-28T08:10:06.566Z,1.99
2019-01-28T08:12:34.210Z,1.93
2019-01-28T08:15:05.961Z,1.97
2019-01-28T08:17:33.680Z,1.99
2019-01-28T08:20:01.437Z,1.98
2019-01-28T08:22:29.289Z,1.92
2019-01-28T08:24:57.058Z,2.00
2019-01-28T08:27:24.823Z,2.09
2019-01-28T08:29:52.514Z,2.16
2019-01-28T08:32:20.103Z,2.16
2019-01-28T08:34:49.485Z,2.11
2019-01-28T08:37:17.399Z,2.22
2019-01-28T08:39:45.158Z,2.31
2019-01-28T08:42:13.294Z,2.38
2019-01-28T08:44:41.053Z,2.45
2019-01-28T08:47:08.646Z,2.52
2019-01-28T08:49:36.317Z,2.53
2019-01-28T08:52:04.031Z,2.63
2019-01-28T08:54:31.681Z,2.71
2019-01-28T08:56:59.301Z,2.74
2019-01-28T08:59:27.008Z,2.77
2019-01-28T09:01:54.733Z,2.96
2019-01-28T09:04:22.336Z,3.03
2019-01-28T09:06:49.984Z,3.14
2019-01-28T09:09:17.598Z,3.28
2019-01-28T09:11:45.176Z,3.38
2019-01-28T09:14:12.824Z,3.39
2019-01-28T09:16:40.395Z,3.47
2019-01-28T09:19:07.948Z,3.46
2019-01-28T09:21:36.634Z,3.44
2019-01-28T09:24:04.325Z,3.50
2019-01-28T09:26:31.916Z,3.57
2019-01-28T09:28:59.728Z,3.54
2019-01-28T09:31:27.383Z,3.58
2019-01-28T09:33:55.120Z,3.52
2019-01-28T09:36:22.842Z,3.60
2019-01-28T09:38:50.426Z,3.59
2019-01-28T09:41:17.985Z,3.51
2019-01-28T09:43:48.439Z,3.55
2019-01-28T09:46:16.048Z,3.61
2019-01-28T09:48:43.625Z,3.75
2019-01-28T09:51:12.365Z,3.81
2019-01-28T09:53:39.964Z,3.85
2019-01-28T09:56:07.513Z,3.84
2019-01-28T09:58:35.250Z,3.96
2019-01-28T10:01:06.651Z,3.83
2019-01-28T10:03:34.372Z,3.93
2019-01-28T10:06:02.387Z,4.06
2019-01-28T10:08:31.934Z,4.15
2019-01-28T10:10:59.582Z,4.18
2019-01-28T10:13:27.149Z,4.12
2019-01-28T10:15:55.212Z,4.11
2019-01-28T10:18:26.264Z,4.14
2019-01-28T10:20:54.000Z,4.09
2019-01-28T10:23:23.510Z,4.07
2019-01-28T10:25:51.785Z,3.93
2019-01-28T10:28:19.496Z,4.04
2019-01-28T10:30:47.690Z,3.98
2019-01-28T10:33:15.250Z,3.97
2019-01-28T10:35:44.146Z,4.02
2019-01-28T10:38:11.853Z,4.10
2019-01-28T10:40:39.988Z,4.23
2019-01-28T10:43:08.270Z,4.34
2019-01-28T10:45:35.939Z,4.35
2019-01-28T10:48:04.263Z,4.27
2019-01-28T10:50:31.912Z,4.24
2019-01-28T10:53:00.510Z,4.35
2019-01-28T10:55:28.231Z,4.35
2019-01-28T10:57:55.814Z,4.25
2019-01-28T11:00:34.946Z,4.28
2019-01-28T11:03:02.862Z,4.35
2019-01-28T11:05:35.463Z,4.38
2019-01-28T11:08:07.277Z,4.38
2019-01-28T11:10:38.105Z,4.36
2019-01-28T11:13:10.029Z,4.36
2019-01-28T11:15:38.801Z,4.38
2019-01-28T11:18:13.694Z,4.48
2019-01-28T11:20:41.544Z,4.55
2019-01-28T11:23:11.954Z,4.58
2019-01-28T11:25:42.182Z,4.68
2019-01-28T11:28:09.950Z,4.81
2019-01-28T11:30:47.526Z,4.67
2019-01-28T11:33:15.268Z,4.86
2019-01-28T11:35:43.229Z,5.13
2019-01-28T11:38:14.416Z,5.20
2019-01-28T11:40:42.118Z,5.23
2019-01-28T11:43:09.797Z,5.30
2019-01-28T11:45:41.807Z,5.48
2019-01-28T11:48:09.568Z,5.53
2019-01-28T11:50:37.246Z,5.63
2019-01-28T11:53:05.099Z,5.65
2019-01-28T11:55:32.782Z,5.80
2019-01-28T11:58:01.279Z,5.84
2019-01-28T12:00:48.469Z,5.79
2019-01-28T12:03:16.211Z,5.72
2019-01-28T12:05:44.225Z,5.73
2019-01-28T12:08:11.908Z,5.85
2019-01-28T12:10:39.548Z,5.75
2019-01-28T12:13:07.330Z,5.86
2019-01-28T12:15:34.972Z,5.81
2019-01-28T12:18:03.750Z,5.71
2019-01-28T12:20:31.389Z,5.85
2019-01-28T12:22:59.051Z,5.94
2019-01-28T12:25:26.728Z,5.89
2019-01-28T12:27:54.463Z,5.90
2019-01-28T12:30:24.636Z,5.91
2019-01-28T12:32:52.621Z,5.88
2019-01-28T12:35:20.386Z,5.82
2019-01-28T12:37:48.038Z,5.78
2019-01-28T12:40:15.906Z,5.73
2019-01-28T12:42:43.587Z,5.78
2019-01-28T12:45:13.548Z,5.69
2019-01-28T12:47:41.296Z,5.65
2019-01-28T12:50:08.948Z,5.67
2019-01-28T12:52:40.070Z,5.61
2019-01-28T12:55:10.488Z,5.55
2019-01-28T12:57:38.463Z,5.54
2019-01-28T13:00:10.449Z,5.58
2019-01-28T13:02:38.178Z,5.59
2019-01-28T13:05:07.924Z,5.55
2019-01-28T13:07:35.778Z,5.58
2019-01-28T13:10:04.980Z,5.58
2019-01-28T13:12:33.548Z,5.57
2019-01-28T13:15:01.333Z,5.64
2019-01-28T13:17:28.941Z,5.68
2019-01-28T13:19:56.641Z,5.72
2019-01-28T13:22:24.196Z,5.63
2019-01-28T13:24:51.789Z,5.80
2019-01-28T13:27:19.357Z,5.98
2019-01-28T13:29:46.969Z,6.10
2019-01-28T13:32:14.558Z,6.28
2019-01-28T13:34:42.167Z,6.33
2019-01-28T13:37:09.772Z,6.40
2019-01-28T13:39:38.083Z,6.75
2019-01-28T13:42:05.755Z,6.86
2019-01-28T13:44:35.243Z,6.96
2019-01-28T13:47:03.066Z,7.13
2019-01-28T13:49:37.984Z,7.16
2019-01-28T13:52:00.166Z,7.15
2019-01-28T13:54:27.816Z,7.01
2019-01-28T13:56:55.461Z,6.90
2019-01-28T13:59:24.910Z,6.85
2019-01-28T14:01:52.635Z,6.74
2019-01-28T14:04:20.273Z,6.63
2019-01-28T14:06:49.487Z,6.51
2019-01-28T14:09:17.183Z,6.45
2019-01-28T14:11:44.875Z,6.27
2019-01-28T14:14:12.617Z,6.23
2019-01-28T14:16:40.354Z,6.16
2019-01-28T14:19:07.944Z,5.82
2019-01-28T14:21:35.623Z,5.69
2019-01-28T14:24:03.617Z,5.65
2019-01-28T14:26:31.355Z,5.43
2019-01-28T14:28:58.990Z,5.28
2019-01-28T14:31:26.619Z,5.16
2019-01-28T14:33:54.211Z,5.02
2019-01-28T14:36:21.832Z,5.01
2019-01-28T14:38:49.570Z,5.04
2019-01-28T14:41:17.228Z,5.11
2019-01-28T14:43:44.896Z,4.99
2019-01-28T14:46:12.477Z,4.83
2019-01-28T14:48:40.095Z,4.86
2019-01-28T14:51:07.731Z,4.76
2019-01-28T14:53:35.327Z,4.71
2019-01-28T14:56:03.095Z,4.70
2019-01-28T14:58:30.698Z,4.74
2019-01-28T15:01:01.333Z,4.71
2019-01-28T15:03:28.983Z,4.62
2019-01-28T15:05:56.651Z,4.50
2019-01-28T15:08:24.451Z,4.60
2019-01-28T15:10:52.073Z,4.61
2019-01-28T15:13:22.263Z,4.60
2019-01-28T15:15:52.544Z,4.57
2019-01-28T15:18:20.118Z,4.41
2019-01-28T15:20:49.580Z,4.30
2019-01-28T15:23:17.293Z,4.19
2019-01-28T15:25:44.992Z,4.08
2019-01-28T15:28:12.546Z,3.98
2019-01-28T15:30:40.236Z,3.86
2019-01-28T15:33:07.974Z,3.81
2019-01-28T15:35:35.771Z,3.78
2019-01-28T15:38:03.961Z,3.79
2019-01-28T15:40:32.977Z,3.76
2019-01-28T15:43:00.619Z,3.75
2019-01-28T15:45:34.640Z,3.78
2019-01-28T15:48:02.696Z,3.67
2019-01-28T15:50:30.868Z,3.64
2019-01-28T15:52:59.104Z,3.61
2019-01-28T15:55:32.283Z,3.51
2019-01-28T15:58:00.190Z,3.41
2019-01-28T16:00:29.307Z,3.38
2019-01-28T16:02:57.376Z,3.34
2019-01-28T16:05:25.976Z,3.27
2019-01-28T16:07:53.716Z,3.24
2019-01-28T16:10:21.396Z,3.19
2019-01-28T16:12:48.987Z,3.17
2019-01-28T16:15:25.282Z,3.18
2019-01-28T16:17:53.956Z,3.21
2019-01-28T16:20:21.720Z,3.13
2019-01-28T16:22:49.561Z,3.19
2019-01-28T16:25:17.303Z,3.20
2019-01-28T16:27:45.042Z,3.21
2019-01-28T16:30:16.200Z,3.17
2019-01-28T16:32:45.588Z,3.17
2019-01-28T16:35:14.469Z,3.12
2019-01-28T16:37:42.680Z,3.11
2019-01-28T16:40:12.569Z,3.03
2019-01-28T16:42:40.950Z,2.98
2019-01-28T16:45:09.978Z,2.97
2019-01-28T16:47:38.178Z,2.95
2019-01-28T16:50:07.518Z,2.95
2019-01-28T16:52:35.684Z,2.88
2019-01-28T16:55:04.176Z,2.76
2019-01-28T16:57:33.106Z,2.80
2019-01-28T17:00:01.406Z,2.74
2019-01-28T17:02:29.472Z,2.71
2019-01-28T17:04:58.103Z,2.60
2019-01-28T17:07:25.905Z,2.58
2019-01-28T17:09:54.575Z,2.52
2019-01-28T17:12:22.486Z,2.43
2019-01-28T17:14:50.782Z,2.40
2019-01-28T17:17:18.744Z,2.43
2019-01-28T17:19:46.646Z,2.38
2019-01-28T17:22:14.653Z,2.42
2019-01-28T17:24:42.699Z,2.42
2019-01-28T17:27:10.628Z,2.37
2019-01-28T17:29:39.194Z,2.33
2019-01-28T17:32:10.239Z,2.36
2019-01-28T17:34:38.255Z,2.38
2019-01-28T17:37:06.154Z,2.36
2019-01-28T17:39:34.203Z,2.34
2019-01-28T17:42:02.340Z,2.37
2019-01-28T17:44:32.157Z,2.34
2019-01-28T17:47:00.267Z,2.24
2019-01-28T17:49:29.327Z,2.26
2019-01-28T17:51:57.170Z,2.27
2019-01-28T17:54:25.215Z,2.27
2019-01-28T17:56:53.409Z,2.19
2019-01-28T17:59:21.396Z,2.24
2019-01-28T18:01:49.394Z,2.22
2019-01-28T18:04:17.381Z,2.19
2019-01-28T18:06:45.121Z,2.23
2019-01-28T18:09:13.069Z,2.19
2019-01-28T18:11:40.783Z,2.13
2019-01-28T18:14:09.243Z,2.16
2019-01-28T18:16:36.946Z,2.06
2019-01-28T18:19:04.754Z,2.08
2019-01-28T18:21:35.013Z,2.08
2019-01-28T18:24:03.128Z,2.12
2019-01-28T18:26:31.924Z,2.10
2019-01-28T18:28:59.914Z,2.07
2019-01-28T18:31:27.679Z,2.10
2019-01-28T18:33:55.700Z,2.04
2019-01-28T18:36:23.786Z,2.00
2019-01-28T18:38:51.872Z,1.95
2019-01-28T18:41:20.129Z,1.99
2019-01-28T18:43:47.989Z,2.08
2019-01-28T18:46:16.069Z,2.06
2019-01-28T18:48:44.314Z,2.07
2019-01-28T18:51:12.582Z,1.92
2019-01-28T18:53:40.795Z,2.00
2019-01-28T18:56:08.803Z,2.01
2019-01-28T18:58:36.887Z,1.93
2019-01-28T19:01:05.321Z,1.95
2019-01-28T19:03:33.376Z,2.05
2019-01-28T19:06:06.049Z,2.10
2019-01-28T19:08:47.107Z,2.02
2019-01-28T19:11:36.168Z,2.05
2019-01-28T19:14:25.585Z,2.02
2019-01-28T19:17:04.775Z,1.99
2019-01-28T19:19:51.254Z,1.97
2019-01-28T19:22:24.166Z,1.97
2019-01-28T19:24:52.028Z,2.02
2019-01-28T19:27:19.691Z,2.01
2019-01-28T19:29:47.560Z,2.05
2019-01-28T19:32:16.686Z,2.05
2019-01-28T19:34:44.810Z,2.05
2019-01-28T19:37:12.728Z,2.10
2019-01-28T19:39:41.084Z,2.08
2019-01-28T19:42:09.207Z,2.01
2019-01-28T19:44:37.256Z,1.99
2019-01-28T19:47:05.183Z,1.98
2019-01-28T19:49:33.134Z,1.91
2019-01-28T19:52:01.226Z,1.90
2019-01-28T19:54:30.308Z,1.85
2019-01-28T19:56:58.238Z,1.80
2019-01-28T19:59:26.511Z,1.80
2019-01-28T20:01:55.606Z,1.78
2019-01-28T20:04:24.734Z,1.88
2019-01-28T20:06:52.958Z,2.00
2019-01-28T20:09:21.024Z,1.98
2019-01-28T20:11:49.023Z,1.95
2019-01-28T20:14:17.307Z,1.91
2019-01-28T20:16:45.539Z,1.94
2019-01-28T20:19:13.527Z,1.92
2019-01-28T20:21:42.513Z,1.99
2019-01-28T20:24:10.589Z,2.07
2019-01-28T20:26:39.727Z,2.07
2019-01-28T20:29:08.105Z,2.08
2019-01-28T20:31:36.140Z,1.89
2019-01-28T20:34:04.955Z,1.83
2019-01-28T20:36:32.952Z,1.84
2019-01-28T20:39:01.033Z,1.92
2019-01-28T20:41:30.894Z,1.85
2019-01-28T20:43:58.818Z,1.77
2019-01-28T20:46:27.134Z,1.75
2019-01-28T20:48:55.310Z,1.78
2019-01-28T20:51:23.188Z,1.80
2019-01-28T20:53:51.507Z,1.79
2019-01-28T20:56:19.522Z,1.74
2019-01-28T20:58:47.757Z,1.79
2019-01-28T21:01:15.753Z,1.74
2019-01-28T21:03:44.863Z,1.77
2019-01-28T21:06:12.826Z,1.78
2019-01-28T21:08:40.727Z,1.75
2019-01-28T21:11:08.737Z,1.58
2019-01-28T21:13:36.896Z,1.51
2019-01-28T21:16:04.973Z,1.47
2019-01-28T21:18:32.946Z,1.51
2019-01-28T21:21:01.075Z,1.46
2019-01-28T21:23:29.216Z,1.48
2019-01-28T21:25:57.593Z,1.43
2019-01-28T21:28:25.640Z,1.41
2019-01-28T21:30:53.731Z,1.38
2019-01-28T21:33:21.752Z,1.35
2019-01-28T21:36:07.914Z,1.29
2019-01-28T21:38:44.559Z,1.27
2019-01-28T21:41:12.883Z,1.32
2019-01-28T21:43:40.820Z,1.28
2019-01-28T21:46:09.170Z,1.34
2019-01-28T21:48:37.134Z,1.33
2019-01-28T21:51:05.170Z,1.20
2019-01-28T21:53:34.219Z,1.11
2019-01-28T21:56:02.194Z,1.09
2019-01-28T21:58:30.188Z,1.16
2019-01-28T22:00:58.741Z,1.18
2019-01-28T22:03:27.033Z,1.36
2019-01-28T22:05:55.065Z,1.30
2019-01-28T22:08:23.135Z,1.24
2019-01-28T22:10:51.202Z,1.23
2019-01-28T22:13:19.537Z,1.20
2019-01-28T22:15:47.438Z,1.13
2019-01-28T22:18:15.583Z,1.20
2019-01-28T22:20:43.629Z,1.19
2019-01-28T22:23:11.852Z,1.18
2019-01-28T22:25:40.129Z,1.15
2019-01-28T22:28:08.349Z,1.07
2019-01-28T22:30:36.359Z,1.05
2019-01-28T22:33:04.575Z,0.93
2019-01-28T22:35:32.763Z,0.95
2019-01-28T22:38:00.684Z,0.98
2019-01-28T22:40:28.659Z,0.98
2019-01-28T22:42:56.813Z,1.02
2019-01-28T22:45:24.826Z,1.03
2019-01-28T22:47:52.935Z,0.93
2019-01-28T22:50:20.876Z,0.93
2019-01-28T22:52:49.292Z,0.98
2019-01-28T22:55:19.040Z,1.05
2019-01-28T22:57:47.094Z,1.05
2019-01-28T23:00:46.544Z,0.96
2019-01-28T23:03:14.811Z,0.93
2019-01-28T23:05:42.721Z,0.85
2019-01-28T23:08:11.023Z,0.82
2019-01-28T23:10:38.895Z,0.76
2019-01-28T23:13:06.850Z,0.73
2019-01-28T23:15:35.089Z,0.69
2019-01-28T23:18:03.160Z,0.63
2019-01-28T23:20:31.096Z,0.62
2019-01-28T23:22:59.143Z,0.60
2019-01-28T23:25:27.146Z,0.61
2019-01-28T23:27:55.191Z,0.65
2019-01-28T23:30:23.511Z,0.58
2019-01-28T23:32:52.743Z,0.51
2019-01-28T23:35:20.693Z,0.50
2019-01-28T23:37:48.918Z,0.56
2019-01-28T23:40:16.961Z,0.55
2019-01-28T23:42:46.739Z,0.49
2019-01-28T23:45:14.772Z,0.51
2019-01-28T23:47:43.067Z,0.55
2019-01-28T23:50:11.013Z,0.56
2019-01-28T23:52:39.192Z,0.49
2019-01-28T23:55:07.262Z,0.44
2019-01-28T23:57:35.246Z,0.42
